createdAt,value
2022-12-13T00:00:01.926Z,163
2022-12-13T00:01:17.000Z,172
2022-12-13T00:02:33.000Z,154
2022-12-13T00:03:50.000Z,160.7
2022-12-13T00:05:06.000Z,148
2022-12-13T00:06:22.000Z,154.8
2022-12-13T00:07:38.000Z,154.3
2022-12-13T00:08:54.000Z,136.1
2022-12-13T00:10:11.101Z,152.1
2022-12-13T00:11:27.000Z,151.7
2022-12-13T00:12:43.000Z,154
2022-12-13T00:13:59.000Z,162.9
2022-12-13T00:15:15.685Z,152.1
2022-12-13T00:16:30.000Z,155.4
2022-12-13T00:17:46.000Z,165.5
2022-12-13T00:19:02.000Z,160.3
2022-12-13T00:20:19.000Z,160.5
2022-12-13T00:21:35.000Z,160.9
2022-12-13T00:22:51.000Z,154.9
2022-12-13T00:24:07.000Z,157.9
2022-12-13T00:25:23.000Z,157.2
2022-12-13T00:26:39.000Z,170.6
2022-12-13T00:27:55.000Z,157.7
2022-12-13T00:29:12.000Z,152.7
2022-12-13T00:30:28.000Z,151.3
2022-12-13T00:31:44.620Z,154.7
2022-12-13T00:32:59.000Z,158.9
2022-12-13T00:34:15.000Z,163.4
2022-12-13T00:35:31.000Z,159.7
2022-12-13T00:36:47.000Z,167.8
2022-12-13T00:38:04.000Z,155.6
2022-12-13T00:39:20.000Z,159.7
2022-12-13T00:40:36.652Z,155.4
2022-12-13T00:41:52.000Z,167.9
2022-12-13T00:43:08.000Z,156.2
2022-12-13T00:44:24.000Z,160
2022-12-13T00:45:41.241Z,159.7
2022-12-13T00:46:57.000Z,162.1
2022-12-13T00:48:13.000Z,156.2
2022-12-13T00:49:28.000Z,153.5
2022-12-13T00:50:44.000Z,169.3
2022-12-13T00:52:00.000Z,163.5
2022-12-13T00:53:16.000Z,179.1
2022-12-13T00:54:33.285Z,165.2
2022-12-13T00:55:49.000Z,175.1
2022-12-13T00:57:05.000Z,159.8
2022-12-13T00:58:21.000Z,173.6
2022-12-13T00:59:37.000Z,171.4
2022-12-13T01:00:53.000Z,164.7
2022-12-13T01:02:09.000Z,170.7
2022-12-13T01:03:26.000Z,163.4
2022-12-13T01:04:42.451Z,165.3
2022-12-13T01:05:57.000Z,171.7
2022-12-13T01:07:13.762Z,170
2022-12-13T01:08:29.000Z,166.9
2022-12-13T01:09:45.000Z,172.4
2022-12-13T01:11:01.000Z,169.1
2022-12-13T01:12:18.000Z,178.2
2022-12-13T01:13:34.499Z,181.7
2022-12-13T01:14:50.000Z,176.9
2022-12-13T01:16:06.000Z,169.3
2022-12-13T01:17:22.946Z,165.4
2022-12-13T01:18:38.000Z,167.2
2022-12-13T01:19:54.000Z,168.8
2022-12-13T01:21:11.000Z,161.9
2022-12-13T01:22:26.000Z,159.1
2022-12-13T01:23:42.000Z,159.2
2022-12-13T01:24:58.000Z,163.9
2022-12-13T01:26:14.000Z,163.9
2022-12-13T01:27:30.000Z,181.4
2022-12-13T01:28:47.000Z,176.7
2022-12-13T01:30:03.000Z,166.5
2022-12-13T01:31:19.000Z,179.1
2022-12-13T01:32:35.000Z,167.4
2022-12-13T01:33:51.000Z,159
2022-12-13T01:35:07.993Z,157.6
2022-12-13T01:36:23.000Z,168.6
2022-12-13T01:37:40.000Z,175.5
2022-12-13T01:38:55.000Z,161.3
2022-12-13T01:40:11.000Z,170.8
2022-12-13T01:41:27.000Z,174.6
2022-12-13T01:42:43.935Z,173.4
2022-12-13T01:43:59.000Z,165.5
2022-12-13T01:45:15.000Z,168.9
2022-12-13T01:46:32.000Z,167.5
2022-12-13T01:47:48.000Z,169.1
2022-12-13T01:49:04.000Z,168.4
2022-12-13T01:50:20.000Z,156.3
2022-12-13T01:51:36.000Z,164.6
2022-12-13T01:52:52.000Z,169.6
2022-12-13T01:54:08.000Z,173.2
2022-12-13T01:55:24.000Z,156
2022-12-13T01:56:40.000Z,177.7
2022-12-13T01:57:56.000Z,170.1
2022-12-13T01:59:12.000Z,157
2022-12-13T02:00:28.000Z,171.7
2022-12-13T02:01:44.000Z,168.4
2022-12-13T02:03:01.000Z,166.8
2022-12-13T02:04:17.000Z,170.5
2022-12-13T02:05:33.000Z,159
2022-12-13T02:06:49.000Z,167.7
2022-12-13T02:08:05.830Z,175.8
2022-12-13T02:09:21.000Z,169
2022-12-13T02:10:37.000Z,178.1
2022-12-13T02:11:53.000Z,177
2022-12-13T02:13:09.000Z,178.6
2022-12-13T02:14:25.000Z,169.8
2022-12-13T02:15:41.725Z,179.2
2022-12-13T02:16:57.000Z,176.4
2022-12-13T02:18:13.000Z,178
2022-12-13T02:19:29.000Z,181.4
2022-12-13T02:20:46.000Z,182.2
2022-12-13T02:22:02.000Z,172.9
2022-12-13T02:23:18.609Z,170.3
2022-12-13T02:24:34.000Z,172
2022-12-13T02:25:50.000Z,167.8
2022-12-13T02:27:06.000Z,167.1
2022-12-13T02:28:21.000Z,171.6
2022-12-13T02:29:38.000Z,172.7
2022-12-13T02:30:54.000Z,162.8
2022-12-13T02:32:10.000Z,159.1
2022-12-13T02:33:26.000Z,166.2
2022-12-13T02:34:42.000Z,167.7
2022-12-13T02:35:58.000Z,161.2
2022-12-13T02:37:15.000Z,161.8
2022-12-13T02:38:31.000Z,151.5
2022-12-13T02:39:47.000Z,160
2022-12-13T02:41:03.000Z,168.9
2022-12-13T02:42:19.000Z,155.8
2022-12-13T02:43:35.000Z,174.2
2022-12-13T02:44:50.000Z,168.2
2022-12-13T02:46:07.268Z,171.8
2022-12-13T02:47:23.418Z,165.1
2022-12-13T02:48:39.000Z,159.6
2022-12-13T02:49:55.000Z,160.6
2022-12-13T02:51:11.852Z,167.5
2022-12-13T02:52:27.000Z,153.4
2022-12-13T02:53:43.000Z,154.1
2022-12-13T02:55:00.000Z,161.4
2022-12-13T02:56:16.000Z,152.2
2022-12-13T02:57:32.000Z,149.7
2022-12-13T02:58:48.000Z,162.3
2022-12-13T03:00:04.000Z,162.5
2022-12-13T03:01:19.000Z,157
2022-12-13T03:02:36.180Z,160.4
2022-12-13T03:03:52.000Z,157.7
2022-12-13T03:05:08.000Z,152.1
2022-12-13T03:06:24.000Z,158.7
2022-12-13T03:07:40.000Z,155.6
2022-12-13T03:08:56.000Z,143.5
2022-12-13T03:10:12.000Z,162.2
2022-12-13T03:11:28.000Z,161
2022-12-13T03:12:45.000Z,157.4
2022-12-13T03:14:01.000Z,150.7
2022-12-13T03:15:17.000Z,159.7
2022-12-13T03:16:33.000Z,148.3
2022-12-13T03:17:48.000Z,161.2
2022-12-13T03:19:05.105Z,150.6
2022-12-13T03:20:21.000Z,146.8
2022-12-13T03:21:37.000Z,148.2
2022-12-13T03:22:53.000Z,135.2
2022-12-13T03:24:09.000Z,132.3
2022-12-13T03:25:25.833Z,125.9
2022-12-13T03:26:41.000Z,127.3
2022-12-13T03:27:57.000Z,123.8
2022-12-13T03:29:14.280Z,113.6
2022-12-13T03:30:30.000Z,124.9
2022-12-13T03:31:46.000Z,111.8
2022-12-13T03:33:02.000Z,111.3
2022-12-13T03:34:17.000Z,119
2022-12-13T03:35:33.000Z,119.7
2022-12-13T03:36:49.000Z,118.1
2022-12-13T03:38:06.000Z,126.1
2022-12-13T03:39:22.000Z,128.6
2022-12-13T03:40:38.000Z,127.9
2022-12-13T03:41:54.756Z,128.6
2022-12-13T03:43:10.000Z,128.4
2022-12-13T03:44:26.000Z,137.5
2022-12-13T03:45:42.000Z,138.1
2022-12-13T03:46:59.000Z,129.8
2022-12-13T03:48:15.000Z,129.9
2022-12-13T03:49:31.000Z,125.2
2022-12-13T03:50:46.000Z,131
2022-12-13T03:52:02.000Z,122.9
2022-12-13T03:53:18.000Z,133.3
2022-12-13T03:54:34.000Z,124.3
2022-12-13T03:55:50.000Z,140.4
2022-12-13T03:57:06.000Z,140
2022-12-13T03:58:22.000Z,119.7
2022-12-13T03:59:38.000Z,124.9
2022-12-13T04:00:55.044Z,129.7
2022-12-13T04:02:10.000Z,124.9
2022-12-13T04:03:27.000Z,131.8
2022-12-13T04:04:43.000Z,126.3
2022-12-13T04:05:59.593Z,128.5
2022-12-13T04:07:15.000Z,133.7
2022-12-13T04:08:31.000Z,134.5
2022-12-13T04:09:47.000Z,129.3
2022-12-13T04:11:02.000Z,127.9
2022-12-13T04:12:19.000Z,135.9
2022-12-13T04:13:35.000Z,144.4
2022-12-13T04:14:51.000Z,135.1
2022-12-13T04:16:07.000Z,139.3
2022-12-13T04:17:23.000Z,137.8
2022-12-13T04:18:39.000Z,129.2
2022-12-13T04:19:56.000Z,128.6
2022-12-13T04:21:12.379Z,138.8
2022-12-13T04:22:28.000Z,135.8
2022-12-13T04:23:44.000Z,136.5
2022-12-13T04:25:00.000Z,127.9
2022-12-13T04:26:16.000Z,132.3
2022-12-13T04:27:32.139Z,143.6
2022-12-13T04:28:48.281Z,131.7
2022-12-13T04:30:04.000Z,120
2022-12-13T04:31:20.000Z,124.4
2022-12-13T04:32:36.000Z,120.5
2022-12-13T04:33:52.000Z,124.8
2022-12-13T04:35:09.019Z,132.2
2022-12-13T04:36:24.000Z,125.1
2022-12-13T04:37:41.000Z,133.4
2022-12-13T04:38:57.000Z,139.3
2022-12-13T04:40:13.000Z,140.9
2022-12-13T04:41:29.760Z,151.5
2022-12-13T04:42:45.000Z,146.8
2022-12-13T04:44:00.000Z,155.1
2022-12-13T04:45:16.000Z,150.6
2022-12-13T04:46:33.000Z,153
2022-12-13T04:47:49.000Z,155.2
2022-12-13T04:49:05.000Z,151.6
2022-12-13T04:50:21.000Z,137.4
2022-12-13T04:51:37.000Z,138.4
2022-12-13T04:52:53.000Z,134.9
2022-12-13T04:54:10.000Z,128.9
2022-12-13T04:55:26.000Z,129.5
2022-12-13T04:56:42.000Z,122.6
2022-12-13T04:57:58.706Z,127.7
2022-12-13T04:59:14.000Z,122
2022-12-13T05:00:29.000Z,139.5
2022-12-13T05:01:45.000Z,123.8
2022-12-13T05:03:02.000Z,138.3
2022-12-13T05:04:18.000Z,132.3
2022-12-13T05:05:34.000Z,124
2022-12-13T05:06:50.000Z,124.9
2022-12-13T05:08:06.000Z,133.6
2022-12-13T05:09:22.000Z,147.5
2022-12-13T05:10:38.000Z,141
2022-12-13T05:11:55.000Z,154.2
2022-12-13T05:13:11.000Z,150.9
2022-12-13T05:14:27.000Z,155.4
2022-12-13T05:15:43.000Z,154.6
2022-12-13T05:16:58.000Z,161.6
2022-12-13T05:18:15.111Z,155.5
2022-12-13T05:19:31.000Z,161.6
2022-12-13T05:20:47.398Z,151.3
2022-12-13T05:22:03.000Z,164.7
2022-12-13T05:23:19.000Z,151.9
2022-12-13T05:24:35.000Z,153
2022-12-13T05:25:51.000Z,173.5
2022-12-13T05:27:07.000Z,156.1
2022-12-13T05:28:24.000Z,155.2
2022-12-13T05:29:40.439Z,154.7
2022-12-13T05:30:56.000Z,167.3
2022-12-13T05:32:12.000Z,169
2022-12-13T05:33:27.000Z,169.8
2022-12-13T05:34:43.000Z,160.7
2022-12-13T05:35:59.000Z,185.4
2022-12-13T05:37:16.000Z,176.1
2022-12-13T05:38:32.000Z,168.5
2022-12-13T05:39:48.000Z,164.1
2022-12-13T05:41:04.000Z,170.5
2022-12-13T05:42:20.000Z,178.9
2022-12-13T05:43:36.000Z,172
2022-12-13T05:44:52.000Z,171
2022-12-13T05:46:09.000Z,185.2
2022-12-13T05:47:25.000Z,176.3
2022-12-13T05:48:41.000Z,178.1
2022-12-13T05:49:56.000Z,182.1
2022-12-13T05:51:12.000Z,188.4
2022-12-13T05:52:28.000Z,177.1
2022-12-13T05:53:45.000Z,176
2022-12-13T05:55:01.000Z,192.1
2022-12-13T05:56:17.000Z,168.1
2022-12-13T05:57:33.000Z,173.7
2022-12-13T05:58:49.000Z,171.5
2022-12-13T06:00:05.000Z,165
2022-12-13T06:01:21.000Z,184.8
2022-12-13T06:02:38.000Z,177.4
2022-12-13T06:03:54.000Z,167.7
2022-12-13T06:05:10.000Z,183.7
2022-12-13T06:06:25.000Z,165.2
2022-12-13T06:07:41.000Z,164.1
2022-12-13T06:08:57.000Z,164.5
2022-12-13T06:10:13.000Z,170.2
2022-12-13T06:11:30.000Z,164
2022-12-13T06:12:46.000Z,169.3
2022-12-13T06:14:02.000Z,183.1
2022-12-13T06:15:18.000Z,165.6
2022-12-13T06:16:34.000Z,152.4
2022-12-13T06:17:50.000Z,164
2022-12-13T06:19:07.249Z,169.9
2022-12-13T06:20:23.000Z,164.6
2022-12-13T06:21:39.000Z,157.3
2022-12-13T06:22:54.000Z,163.2
2022-12-13T06:24:10.000Z,149.3
2022-12-13T06:25:26.000Z,140.2
2022-12-13T06:26:43.116Z,133
2022-12-13T06:27:59.000Z,133.5
2022-12-13T06:29:15.000Z,146.9
2022-12-13T06:30:31.000Z,139.6
2022-12-13T06:31:47.000Z,153.2
2022-12-13T06:33:03.000Z,161
2022-12-13T06:34:19.000Z,168.2
2022-12-13T06:35:35.000Z,170.4
2022-12-13T06:36:52.000Z,176.8
2022-12-13T06:38:08.000Z,170.7
2022-12-13T06:39:23.000Z,170.4
2022-12-13T06:40:39.000Z,165.1
2022-12-13T06:41:55.000Z,170.8
2022-12-13T06:43:11.000Z,167.9
2022-12-13T06:44:27.000Z,159.1
2022-12-13T06:45:44.000Z,150.8
2022-12-13T06:47:00.000Z,145.2
2022-12-13T06:48:16.000Z,149.6
2022-12-13T06:49:32.000Z,141.3
2022-12-13T06:50:48.000Z,146
2022-12-13T06:52:04.000Z,148.8
2022-12-13T06:53:20.000Z,124.8
2022-12-13T06:54:37.000Z,137.8
2022-12-13T06:55:52.000Z,142.4
2022-12-13T06:57:08.000Z,132.8
2022-12-13T06:58:24.000Z,139.3
2022-12-13T06:59:40.000Z,130.2
2022-12-13T07:00:56.000Z,137.2
2022-12-13T07:02:13.000Z,130.9
2022-12-13T07:03:29.000Z,125.1
2022-12-13T07:04:45.000Z,130.2
2022-12-13T07:06:01.000Z,120.8
2022-12-13T07:07:17.000Z,117.8
2022-12-13T07:08:33.000Z,122.9
2022-12-13T07:09:50.117Z,125.6
2022-12-13T07:11:06.000Z,127.9
2022-12-13T07:12:21.000Z,127
2022-12-13T07:13:37.000Z,136.6
2022-12-13T07:14:53.000Z,123.4
2022-12-13T07:16:09.000Z,130.4
2022-12-13T07:17:25.000Z,131.1
2022-12-13T07:18:42.154Z,148
2022-12-13T07:19:58.000Z,143
2022-12-13T07:21:14.000Z,158.2
2022-12-13T07:22:30.000Z,151.9
2022-12-13T07:23:46.000Z,141.6
2022-12-13T07:25:02.000Z,154.6
2022-12-13T07:26:18.000Z,165.8
2022-12-13T07:27:34.000Z,163.6
2022-12-13T07:28:50.000Z,168.2
2022-12-13T07:30:06.000Z,172.3
2022-12-13T07:31:22.000Z,174.4
2022-12-13T07:32:38.000Z,172.2
2022-12-13T07:33:54.000Z,179.7
2022-12-13T07:35:10.000Z,175.3
2022-12-13T07:36:26.000Z,181
2022-12-13T07:37:43.000Z,185.9
2022-12-13T07:38:59.000Z,190.9
2022-12-13T07:40:15.000Z,181.2
2022-12-13T07:41:31.000Z,194.6
2022-12-13T07:42:47.000Z,187.6
2022-12-13T07:44:03.000Z,183.1
2022-12-13T07:45:19.000Z,184.6
2022-12-13T07:46:35.000Z,186.3
2022-12-13T07:47:51.000Z,173.4
2022-12-13T07:49:07.690Z,186
2022-12-13T07:50:23.000Z,193.2
2022-12-13T07:51:39.000Z,176.6
2022-12-13T07:52:55.000Z,176.3
2022-12-13T07:54:12.000Z,185.3
2022-12-13T07:55:28.000Z,177.1
2022-12-13T07:56:44.000Z,182.2
2022-12-13T07:58:00.000Z,181.5
2022-12-13T07:59:16.000Z,179.2
2022-12-13T08:00:32.000Z,183.9
2022-12-13T08:01:47.000Z,168.4
2022-12-13T08:03:04.000Z,172.7
2022-12-13T08:04:20.000Z,170.8
2022-12-13T08:05:36.000Z,167.1
2022-12-13T08:06:52.000Z,167.8
2022-12-13T08:08:08.000Z,164.6
2022-12-13T08:09:23.000Z,165
2022-12-13T08:10:39.000Z,148.2
2022-12-13T08:11:56.331Z,162.2
2022-12-13T08:13:12.000Z,157
2022-12-13T08:14:28.000Z,147
2022-12-13T08:15:44.000Z,145.1
2022-12-13T08:17:00.000Z,153.5
2022-12-13T08:18:16.000Z,150.2
2022-12-13T08:19:32.000Z,145.4
2022-12-13T08:20:49.349Z,142.3
2022-12-13T08:22:05.496Z,151.1
2022-12-13T08:23:21.000Z,138.4
2022-12-13T08:24:37.000Z,141.3
2022-12-13T08:25:52.000Z,138.6
2022-12-13T08:27:09.087Z,136.6
2022-12-13T08:28:25.231Z,143.3
2022-12-13T08:29:41.000Z,146.5
2022-12-13T08:30:57.000Z,144.4
2022-12-13T08:32:13.000Z,152.5
2022-12-13T08:33:29.000Z,145.8
2022-12-13T08:34:45.000Z,131.1
2022-12-13T08:36:02.109Z,143
2022-12-13T08:37:18.254Z,143
2022-12-13T08:38:34.000Z,130.3
2022-12-13T08:39:50.551Z,132.2
2022-12-13T08:41:06.000Z,128.7
2022-12-13T08:42:21.000Z,128.8
2022-12-13T08:43:37.000Z,126.8
2022-12-13T08:44:53.000Z,123.9
2022-12-13T08:46:10.000Z,129.1
2022-12-13T08:47:26.000Z,122.9
2022-12-13T08:48:42.000Z,111.9
2022-12-13T08:49:58.000Z,120.3
2022-12-13T08:51:14.000Z,118.6
2022-12-13T08:52:30.000Z,114.7
2022-12-13T08:53:46.000Z,114.5
2022-12-13T08:55:03.000Z,109.8
2022-12-13T08:56:19.000Z,114.4
2022-12-13T08:57:35.000Z,120.9
2022-12-13T08:58:50.000Z,111.7
2022-12-13T09:00:06.000Z,113.3
2022-12-13T09:01:22.000Z,111.9
2022-12-13T09:02:38.000Z,110.9
2022-12-13T09:03:55.345Z,112.9
2022-12-13T09:05:11.000Z,121.8
2022-12-13T09:06:27.000Z,116
2022-12-13T09:07:43.000Z,114.3
2022-12-13T09:08:59.000Z,111.2
2022-12-13T09:10:15.000Z,115.5
2022-12-13T09:11:31.000Z,113.5
2022-12-13T09:12:48.000Z,116.3
2022-12-13T09:14:04.000Z,105.5
2022-12-13T09:15:19.000Z,112.3
2022-12-13T09:16:35.000Z,117.6
2022-12-13T09:17:51.000Z,111.7
2022-12-13T09:19:08.114Z,104.7
2022-12-13T09:20:24.000Z,101.7
2022-12-13T09:21:40.402Z,106.1
2022-12-13T09:22:56.000Z,106.8
2022-12-13T09:24:12.000Z,105.1
2022-12-13T09:25:28.000Z,102.8
2022-12-13T09:26:44.000Z,107
2022-12-13T09:28:00.000Z,125.6
2022-12-13T09:29:17.000Z,113.9
2022-12-13T09:30:33.000Z,113.2
2022-12-13T09:31:48.000Z,101.3
2022-12-13T09:33:04.000Z,108.6
2022-12-13T09:34:20.000Z,111.8
2022-12-13T09:35:37.024Z,110.5
2022-12-13T09:36:52.000Z,104.4
2022-12-13T09:38:09.000Z,110.9
2022-12-13T09:39:25.000Z,106.3
2022-12-13T09:40:41.000Z,102
2022-12-13T09:41:57.000Z,106.2
2022-12-13T09:43:13.000Z,101.6
2022-12-13T09:44:29.000Z,111.4
2022-12-13T09:45:45.000Z,100
2022-12-13T09:47:02.348Z,109.5
2022-12-13T09:48:17.000Z,111.6
2022-12-13T09:49:33.000Z,108.8
2022-12-13T09:50:49.000Z,107
2022-12-13T09:52:05.000Z,104.4
2022-12-13T09:53:21.000Z,106
2022-12-13T09:54:37.000Z,106
2022-12-13T09:55:54.000Z,115.7
2022-12-13T09:57:10.525Z,111.3
2022-12-13T09:58:26.000Z,118.2
2022-12-13T09:59:42.000Z,99.7
2022-12-13T10:00:58.000Z,106.6
2022-12-13T10:02:14.000Z,102.4
2022-12-13T10:03:31.000Z,114
2022-12-13T10:04:46.000Z,109.7
2022-12-13T10:06:02.000Z,116.7
2022-12-13T10:07:18.000Z,108.3
2022-12-13T10:08:34.000Z,114.8
2022-12-13T10:09:50.000Z,112.5
2022-12-13T10:11:06.000Z,100.1
2022-12-13T10:12:23.000Z,104.1
2022-12-13T10:13:39.000Z,100.8
2022-12-13T10:14:55.000Z,99.8
2022-12-13T10:16:11.000Z,99.2
2022-12-13T10:17:27.000Z,105.4
2022-12-13T10:18:44.023Z,101.9
2022-12-13T10:19:59.000Z,100.4
2022-12-13T10:21:15.330Z,99.2
2022-12-13T10:22:31.000Z,99.9
2022-12-13T10:23:47.000Z,92.3
2022-12-13T10:25:03.000Z,95.1
2022-12-13T10:26:19.000Z,89
2022-12-13T10:27:35.000Z,98.3
2022-12-13T10:28:51.000Z,94.6
2022-12-13T10:30:08.000Z,95.7
2022-12-13T10:31:24.000Z,90.1
2022-12-13T10:32:40.660Z,87.9
2022-12-13T10:33:56.792Z,89.5
2022-12-13T10:35:12.000Z,88.3
2022-12-13T10:36:28.000Z,89.5
2022-12-13T10:37:44.000Z,93.6
2022-12-13T10:39:00.000Z,96
2022-12-13T10:40:16.000Z,97.7
2022-12-13T10:41:32.685Z,93.1
2022-12-13T10:42:48.000Z,101
2022-12-13T10:44:04.000Z,96.8
2022-12-13T10:45:20.000Z,92.7
2022-12-13T10:46:37.000Z,88.8
2022-12-13T10:47:53.000Z,93.4
2022-12-13T10:49:09.000Z,93.6
2022-12-13T10:50:25.000Z,96.6
2022-12-13T10:51:41.000Z,87.2
2022-12-13T10:52:57.000Z,91.2
2022-12-13T10:54:12.000Z,109.4
2022-12-13T10:55:29.000Z,95.3
2022-12-13T10:56:45.000Z,94.6
2022-12-13T10:58:01.609Z,95.3
2022-12-13T10:59:17.744Z,94.1
2022-12-13T11:00:33.000Z,99.7
2022-12-13T11:01:49.000Z,97.8
2022-12-13T11:03:05.000Z,107.2
2022-12-13T11:04:22.000Z,100.8
2022-12-13T11:05:38.000Z,108.5
2022-12-13T11:06:54.000Z,100.5
2022-12-13T11:09:26.000Z,101.3
2022-12-13T11:10:41.000Z,104.4
2022-12-13T11:11:57.000Z,106
2022-12-13T11:13:14.359Z,108.6
2022-12-13T11:14:30.000Z,111.4
2022-12-13T11:15:46.000Z,115.8
2022-12-13T11:17:02.000Z,109.6
2022-12-13T11:18:18.951Z,115.8
2022-12-13T11:19:35.093Z,117
2022-12-13T11:20:51.000Z,117.6
2022-12-13T11:22:07.160Z,116.8
2022-12-13T11:23:23.000Z,108.3
2022-12-13T11:24:39.676Z,117
2022-12-13T11:25:55.000Z,104.3
2022-12-13T11:27:10.000Z,108.7
2022-12-13T11:28:26.000Z,121.4
2022-12-13T11:29:43.000Z,114.6
2022-12-13T11:30:59.000Z,116.7
2022-12-13T11:32:15.000Z,125.2
2022-12-13T11:33:31.000Z,117.1
2022-12-13T11:34:47.000Z,118.6
2022-12-13T11:36:03.000Z,119.8
2022-12-13T11:37:20.159Z,112.7
2022-12-13T11:38:36.000Z,122.6
2022-12-13T11:39:52.000Z,118
2022-12-13T11:41:08.000Z,120.2
2022-12-13T11:42:24.000Z,120.5
2022-12-13T11:43:39.919Z,120.2
2022-12-13T11:44:55.000Z,125.2
2022-12-13T11:46:11.000Z,115.4
2022-12-13T11:47:28.000Z,128.2
2022-12-13T11:48:44.000Z,127.2
2022-12-13T11:50:00.000Z,127.6
2022-12-13T11:51:16.000Z,115.5
2022-12-13T11:52:32.924Z,121.3
2022-12-13T11:53:49.069Z,117.9
2022-12-13T11:55:04.000Z,114.9
2022-12-13T11:56:21.000Z,119.9
2022-12-13T11:57:37.000Z,114.4
2022-12-13T11:58:53.000Z,123.5
2022-12-13T12:00:08.000Z,128.9
2022-12-13T12:01:24.000Z,124.5
2022-12-13T12:02:40.000Z,121.4
2022-12-13T12:03:57.000Z,131.6
2022-12-13T12:05:13.000Z,128.2
2022-12-13T12:06:29.549Z,123
2022-12-13T12:07:45.000Z,120.2
2022-12-13T12:09:01.000Z,122.3
2022-12-13T12:10:17.000Z,124.9
2022-12-13T12:11:33.000Z,121.1
2022-12-13T12:12:50.278Z,127.2
2022-12-13T12:14:06.000Z,112.8
2022-12-13T12:15:22.000Z,126.6
2022-12-13T12:16:37.000Z,125.6
2022-12-13T12:17:53.000Z,128.2
2022-12-13T12:19:09.000Z,121.1
2022-12-13T12:20:25.000Z,119.1
2022-12-13T12:21:42.000Z,128
2022-12-13T12:22:58.000Z,126.8
2022-12-13T12:24:13.000Z,121.1
2022-12-13T12:25:29.774Z,128.2
2022-12-13T12:26:45.000Z,124.6
2022-12-13T12:28:01.000Z,125.6
2022-12-13T12:29:18.000Z,132.4
2022-12-13T12:30:34.000Z,129.9
2022-12-13T12:31:50.000Z,130.5
2022-12-13T12:33:06.000Z,141.7
2022-12-13T12:34:22.803Z,131.1
2022-12-13T12:35:38.000Z,130
2022-12-13T12:36:54.000Z,135.5
2022-12-13T12:38:11.000Z,136.3
2022-12-13T12:39:27.000Z,134.7
2022-12-13T12:40:42.000Z,137.1
2022-12-13T12:41:58.000Z,136.4
2022-12-13T12:43:14.000Z,138.4
2022-12-13T12:44:30.996Z,146.7
2022-12-13T12:45:46.000Z,144.7
2022-12-13T12:47:03.000Z,139.8
2022-12-13T12:48:19.000Z,139.5
2022-12-13T12:49:35.000Z,140.3
2022-12-13T12:50:51.000Z,141.8
2022-12-13T12:52:07.000Z,140.7
2022-12-13T12:53:23.000Z,143.1
2022-12-13T12:54:39.000Z,152.7
2022-12-13T12:55:56.304Z,152.3
2022-12-13T12:57:11.000Z,141.2
2022-12-13T12:58:27.000Z,144.9
2022-12-13T12:59:43.000Z,145.6
2022-12-13T13:00:59.000Z,144.1
2022-12-13T13:02:16.053Z,148.1
2022-12-13T13:03:32.000Z,152.5
2022-12-13T13:04:48.000Z,145.9
2022-12-13T13:06:04.000Z,149.4
2022-12-13T13:07:20.638Z,152.1
2022-12-13T13:08:36.000Z,147
2022-12-13T13:09:52.000Z,148.4
2022-12-13T13:11:08.000Z,140
2022-12-13T13:12:25.000Z,149.4
2022-12-13T13:13:40.000Z,161
2022-12-13T13:14:56.000Z,150.5
2022-12-13T13:16:12.674Z,154.7
2022-12-13T13:17:28.000Z,139.9
2022-12-13T13:18:44.000Z,149.4
2022-12-13T13:20:00.000Z,161.5
2022-12-13T13:21:17.256Z,155.9
2022-12-13T13:22:33.000Z,154
2022-12-13T13:23:49.000Z,148.7
2022-12-13T13:25:05.000Z,146.9
2022-12-13T13:26:21.000Z,154.3
2022-12-13T13:27:37.000Z,155.7
2022-12-13T13:28:53.000Z,154.2
2022-12-13T13:30:09.000Z,152.4
2022-12-13T13:31:25.000Z,154
2022-12-13T13:32:41.000Z,153.9
2022-12-13T13:33:57.000Z,160.6
2022-12-13T13:35:13.000Z,158.5
2022-12-13T13:36:29.000Z,161.8
2022-12-13T13:37:45.000Z,155.1
2022-12-13T13:39:02.000Z,157.2
2022-12-13T13:40:18.000Z,155.5
2022-12-13T13:41:34.000Z,162.6
2022-12-13T13:42:50.000Z,154.4
2022-12-13T13:44:06.000Z,150.6
2022-12-13T13:45:23.070Z,162.8
2022-12-13T13:46:37.000Z,158.7
2022-12-13T13:47:54.000Z,160.9
2022-12-13T13:49:10.509Z,161.8
2022-12-13T13:50:26.000Z,165
2022-12-13T13:51:42.000Z,147.3
2022-12-13T13:52:58.000Z,155.9
2022-12-13T13:54:14.000Z,161.3
2022-12-13T13:55:31.000Z,162.8
2022-12-13T13:56:47.378Z,153.6
2022-12-13T13:58:03.000Z,164.3
2022-12-13T13:59:19.000Z,162.7
2022-12-13T14:00:35.000Z,158.8
2022-12-13T14:01:51.000Z,160.2
2022-12-13T14:03:06.000Z,163.9
2022-12-13T14:04:23.287Z,158.7
2022-12-13T14:05:39.000Z,161.6
2022-12-13T14:06:55.000Z,160.6
2022-12-13T14:08:11.000Z,161
2022-12-13T14:09:27.000Z,163
2022-12-13T14:10:44.001Z,150.7
2022-12-13T14:11:59.000Z,155.7
2022-12-13T14:13:16.000Z,157.1
2022-12-13T14:14:32.000Z,161.3
2022-12-13T14:15:48.000Z,162.2
2022-12-13T14:17:04.000Z,153.7
2022-12-13T14:18:20.000Z,172.2
2022-12-13T14:19:35.000Z,159.5
2022-12-13T14:20:51.000Z,160.9
2022-12-13T14:22:08.000Z,160.4
2022-12-13T14:23:24.000Z,156
2022-12-13T14:24:40.000Z,161.3
2022-12-13T14:25:56.000Z,164.1
2022-12-13T14:27:12.000Z,156.5
2022-12-13T14:28:28.000Z,163.1
2022-12-13T14:29:44.000Z,155.4
2022-12-13T14:31:01.000Z,153.9
2022-12-13T14:32:17.000Z,155.6
2022-12-13T14:33:33.000Z,146.1
2022-12-13T14:34:49.000Z,153.7
2022-12-13T14:36:04.959Z,161.2
2022-12-13T14:37:20.000Z,158.5
2022-12-13T14:38:37.000Z,145.6
2022-12-13T14:39:53.000Z,158.5
2022-12-13T14:41:09.000Z,146.4
2022-12-13T14:42:25.000Z,142.5
2022-12-13T14:43:41.000Z,152.8
2022-12-13T14:44:57.000Z,164.6
2022-12-13T14:46:13.000Z,156.1
2022-12-13T14:47:30.275Z,145.4
2022-12-13T14:48:46.417Z,153.7
2022-12-13T14:50:02.000Z,155.2
2022-12-13T14:51:18.000Z,150.3
2022-12-13T14:52:33.000Z,154.7
2022-12-13T14:53:49.000Z,148.8
2022-12-13T14:55:05.000Z,153.6
2022-12-13T14:56:22.000Z,165.5
2022-12-13T14:57:38.457Z,153.7
2022-12-13T14:58:54.000Z,151.4
2022-12-13T15:00:10.000Z,154.2
2022-12-13T15:01:26.000Z,158.4
2022-12-13T15:02:43.046Z,146.9
2022-12-13T15:03:58.000Z,157.5
2022-12-13T15:05:15.000Z,159.5
2022-12-13T15:06:31.000Z,163.7
2022-12-13T15:07:47.000Z,147.1
2022-12-13T15:09:02.790Z,154.5
2022-12-13T15:10:18.000Z,153.1
2022-12-13T15:11:34.000Z,153.7
2022-12-13T15:12:51.000Z,148.4
2022-12-13T15:14:07.000Z,151.4
2022-12-13T15:15:23.000Z,150.6
2022-12-13T15:16:39.000Z,148.9
2022-12-13T15:17:55.000Z,148.5
2022-12-13T15:19:11.000Z,154.5
2022-12-13T15:20:27.000Z,151.2
2022-12-13T15:21:44.000Z,151.6
2022-12-13T15:23:00.395Z,147
2022-12-13T15:24:16.000Z,146
2022-12-13T15:25:31.000Z,144.6
2022-12-13T15:26:47.000Z,145.5
2022-12-13T15:28:03.000Z,152.4
2022-12-13T15:29:19.000Z,150.8
2022-12-13T15:30:36.288Z,153.7
2022-12-13T15:31:52.000Z,138.7
2022-12-13T15:33:08.000Z,154.8
2022-12-13T15:34:24.000Z,149.1
2022-12-13T15:35:40.000Z,138.9
2022-12-13T15:36:56.000Z,152.8
2022-12-13T15:38:12.000Z,153.5
2022-12-13T15:39:29.000Z,145.1
2022-12-13T15:40:45.000Z,147.7
2022-12-13T15:42:00.000Z,147.1
2022-12-13T15:43:16.000Z,151
2022-12-13T15:44:32.000Z,143.1
2022-12-13T15:45:48.000Z,148.5
2022-12-13T15:47:04.000Z,143.9
2022-12-13T15:48:21.000Z,141.9
2022-12-13T15:49:37.000Z,141.6
2022-12-13T15:50:53.000Z,152.1
2022-12-13T15:52:09.000Z,155.2
2022-12-13T15:53:25.000Z,150.2
2022-12-13T15:54:41.000Z,145.8
2022-12-13T15:55:58.000Z,145.9
2022-12-13T15:57:14.000Z,136.7
2022-12-13T15:58:29.000Z,144.5
2022-12-13T15:59:45.000Z,154.9
2022-12-13T16:01:01.000Z,144.2
2022-12-13T16:02:17.999Z,157.5
2022-12-13T16:03:33.000Z,149.3
2022-12-13T16:04:50.302Z,159.8
2022-12-13T16:06:06.000Z,158
2022-12-13T16:07:22.589Z,163
2022-12-13T16:08:38.000Z,155.8
2022-12-13T16:09:54.000Z,163.9
2022-12-13T16:11:10.000Z,153.2
2022-12-13T16:12:27.175Z,159.6
2022-12-13T16:13:43.324Z,154.4
2022-12-13T16:14:58.000Z,150.5
2022-12-13T16:16:14.000Z,156.7
2022-12-13T16:17:30.000Z,155.7
2022-12-13T16:18:46.924Z,158.1
2022-12-13T16:20:02.000Z,151.2
2022-12-13T16:21:18.000Z,149.4
2022-12-13T16:22:35.364Z,154.3
2022-12-13T16:23:51.000Z,156.2
2022-12-13T16:25:07.000Z,162.8
2022-12-13T16:26:23.000Z,154.9
2022-12-13T16:27:39.000Z,158.3